sensor_id;sensor_type;location;lat;lon;timestamp;pressure;altitude;pressure_sealevel;temperature;humidity
13954;BME280;7049;49.444;8.522;2022-12-29T00:02:33;77763.66;;;-3.47;83.58
13954;BME280;7049;49.444;8.522;2022-12-29T00:07:35;77746.94;;;-3.47;83.55
13954;BME280;7049;49.444;8.522;2022-12-29T00:12:36;77717.63;;;-3.47;83.91
13954;BME280;7049;49.444;8.522;2022-12-29T00:17:57;77661.13;;;-3.47;86.79
13954;BME280;7049;49.444;8.522;2022-12-29T00:22:58;77583.72;;;-3.47;85.93
13954;BME280;7049;49.444;8.522;2022-12-29T00:28:17;77564.91;;;-3.47;85.29
13954;BME280;7049;49.444;8.522;2022-12-29T00:33:38;77552.34;;;-3.47;83.84
13954;BME280;7049;49.444;8.522;2022-12-29T00:39:00;77571.16;;;-3.47;82.80
13954;BME280;7049;49.444;8.522;2022-12-29T00:44:19;77590.00;;;-3.47;82.50
13954;BME280;7049;49.444;8.522;2022-12-29T00:49:22;77610.91;;;-3.47;82.56
13954;BME280;7049;49.444;8.522;2022-12-29T00:54:34;77640.22;;;-3.47;82.69
13954;BME280;7049;49.444;8.522;2022-12-29T00:59:36;77642.31;;;-3.47;82.81
13954;BME280;7049;49.444;8.522;2022-12-29T01:04:39;77644.41;;;-3.47;82.46
13954;BME280;7049;49.444;8.522;2022-12-29T01:09:41;77650.69;;;-3.47;82.20
13954;BME280;7049;49.444;8.522;2022-12-29T01:15:00;77617.19;;;-3.47;81.06
13954;BME280;7049;49.444;8.522;2022-12-29T01:20:03;77587.91;;;-3.47;80.11
13954;BME280;7049;49.444;8.522;2022-12-29T01:25:06;77562.81;;;-3.47;80.83
13954;BME280;7049;49.444;8.522;2022-12-29T01:30:08;77554.44;;;-3.47;80.61
13954;BME280;7049;49.444;8.522;2022-12-29T01:35:11;77554.44;;;-3.47;80.65
13954;BME280;7049;49.444;8.522;2022-12-29T01:40:13;77514.69;;;-3.47;82.02
13954;BME280;7049;49.444;8.522;2022-12-29T01:45:15;77508.41;;;-3.47;82.50
13954;BME280;7049;49.444;8.522;2022-12-29T01:50:22;77508.41;;;-3.47;82.59
13954;BME280;7049;49.444;8.522;2022-12-29T01:55:25;77527.22;;;-3.47;83.92
13954;BME280;7049;49.444;8.522;2022-12-29T02:00:28;77502.13;;;-3.47;85.17
13954;BME280;7049;49.444;8.522;2022-12-29T02:05:34;77497.94;;;-3.47;86.27
13954;BME280;7049;49.444;8.522;2022-12-29T02:10:39;77491.66;;;-3.47;87.13
13954;BME280;7049;49.444;8.522;2022-12-29T02:15:53;77491.66;;;-3.47;88.50
13954;BME280;7049;49.444;8.522;2022-12-29T02:21:28;77493.75;;;-3.47;89.09
13954;BME280;7049;49.444;8.522;2022-12-29T02:26:49;77502.13;;;-3.47;89.95
13954;BME280;7049;49.444;8.522;2022-12-29T02:32:03;77481.19;;;-3.47;89.60
13954;BME280;7049;49.444;8.522;2022-12-29T02:37:12;77489.56;;;-3.47;89.99
13954;BME280;7049;49.444;8.522;2022-12-29T02:42:22;77479.09;;;-3.47;89.93
13954;BME280;7049;49.444;8.522;2022-12-29T02:47:32;77479.09;;;-3.47;90.14
13954;BME280;7049;49.444;8.522;2022-12-29T02:52:40;77470.75;;;-3.47;89.85
13954;BME280;7049;49.444;8.522;2022-12-29T02:57:45;77466.56;;;-3.47;89.52
13954;BME280;7049;49.444;8.522;2022-12-29T03:03:12;77454.00;;;-3.47;88.81
13954;BME280;7049;49.444;8.522;2022-12-29T03:08:23;77449.81;;;-3.47;88.48
13954;BME280;7049;49.444;8.522;2022-12-29T03:13:34;77445.63;;;-3.47;88.41
13954;BME280;7049;49.444;8.522;2022-12-29T03:19:02;77443.53;;;-3.47;88.27
13954;BME280;7049;49.444;8.522;2022-12-29T03:24:06;77414.25;;;-3.47;87.96
13954;BME280;7049;49.444;8.522;2022-12-29T03:29:08;77410.06;;;-3.47;87.38
13954;BME280;7049;49.444;8.522;2022-12-29T03:34:13;77389.13;;;-3.47;86.30
13954;BME280;7049;49.444;8.522;2022-12-29T03:39:16;77372.41;;;-3.47;84.91
13954;BME280;7049;49.444;8.522;2022-12-29T03:44:19;77389.13;;;-3.47;85.08
13954;BME280;7049;49.444;8.522;2022-12-29T03:49:22;77370.31;;;-3.47;84.69
13954;BME280;7049;49.444;8.522;2022-12-29T03:54:24;77370.31;;;-3.47;85.03
13954;BME280;7049;49.444;8.522;2022-12-29T03:59:25;77366.13;;;-3.47;85.66
13954;BME280;7049;49.444;8.522;2022-12-29T04:04:28;77368.22;;;-3.47;85.12
13954;BME280;7049;49.444;8.522;2022-12-29T04:09:29;77361.94;;;-3.47;84.66
13954;BME280;7049;49.444;8.522;2022-12-29T04:14:31;77364.03;;;-3.47;84.40
13954;BME280;7049;49.444;8.522;2022-12-29T04:19:34;77349.38;;;-3.47;83.26
13954;BME280;7049;49.444;8.522;2022-12-29T04:24:35;77357.75;;;-3.47;83.57
13954;BME280;7049;49.444;8.522;2022-12-29T04:29:37;77361.94;;;-3.47;82.82
13954;BME280;7049;49.444;8.522;2022-12-29T04:34:39;77345.22;;;-3.47;82.80
13954;BME280;7049;49.444;8.522;2022-12-29T04:39:41;77359.84;;;-3.47;83.03
13954;BME280;7049;49.444;8.522;2022-12-29T04:44:42;77370.31;;;-3.47;83.44
13954;BME280;7049;49.444;8.522;2022-12-29T04:49:45;77366.13;;;-3.47;82.67
13954;BME280;7049;49.444;8.522;2022-12-29T04:54:46;77366.13;;;-3.47;82.40
13954;BME280;7049;49.444;8.522;2022-12-29T04:59:48;77366.13;;;-3.47;81.87
13954;BME280;7049;49.444;8.522;2022-12-29T05:04:50;77357.75;;;-3.47;81.12
13954;BME280;7049;49.444;8.522;2022-12-29T05:09:52;77366.13;;;-3.47;81.11
13954;BME280;7049;49.444;8.522;2022-12-29T05:14:53;77349.38;;;-3.47;80.45
13954;BME280;7049;49.444;8.522;2022-12-29T05:19:56;77336.84;;;-3.47;80.05
13954;BME280;7049;49.444;8.522;2022-12-29T05:24:57;77341.03;;;-3.47;79.78
13954;BME280;7049;49.444;8.522;2022-12-29T05:29:59;77341.03;;;-3.47;79.53
13954;BME280;7049;49.444;8.522;2022-12-29T05:35:02;77332.66;;;-3.47;79.70
13954;BME280;7049;49.444;8.522;2022-12-29T05:40:05;77341.03;;;-3.47;80.24
13954;BME280;7049;49.444;8.522;2022-12-29T05:45:08;77345.22;;;-3.47;80.43
13954;BME280;7049;49.444;8.522;2022-12-29T05:50:11;77353.56;;;-3.47;80.52
13954;BME280;7049;49.444;8.522;2022-12-29T05:55:12;77357.75;;;-3.47;81.06
13954;BME280;7049;49.444;8.522;2022-12-29T06:00:14;77361.94;;;-3.47;81.41
13954;BME280;7049;49.444;8.522;2022-12-29T06:05:17;77370.31;;;-3.47;81.86
13954;BME280;7049;49.444;8.522;2022-12-29T06:10:18;77361.94;;;-3.47;81.90
13954;BME280;7049;49.444;8.522;2022-12-29T06:15:20;77361.94;;;-3.47;82.39
13954;BME280;7049;49.444;8.522;2022-12-29T06:20:23;77359.84;;;-3.47;81.89
13954;BME280;7049;49.444;8.522;2022-12-29T06:25:24;77361.94;;;-3.47;81.84
13954;BME280;7049;49.444;8.522;2022-12-29T06:30:26;77366.13;;;-3.47;81.54
13954;BME280;7049;49.444;8.522;2022-12-29T06:35:29;77364.03;;;-3.47;81.33
13954;BME280;7049;49.444;8.522;2022-12-29T06:40:30;77345.22;;;-3.47;80.27
13954;BME280;7049;49.444;8.522;2022-12-29T06:45:31;77349.38;;;-3.47;80.29
13954;BME280;7049;49.444;8.522;2022-12-29T06:50:34;77351.47;;;-3.47;79.92
13954;BME280;7049;49.444;8.522;2022-12-29T06:55:36;77353.56;;;-3.47;79.79
13954;BME280;7049;49.444;8.522;2022-12-29T07:00:38;77351.47;;;-3.47;79.26
13954;BME280;7049;49.444;8.522;2022-12-29T07:05:40;77347.28;;;-3.47;78.51
13954;BME280;7049;49.444;8.522;2022-12-29T07:10:42;77349.38;;;-3.47;78.24
13954;BME280;7049;49.444;8.522;2022-12-29T07:15:43;77353.56;;;-3.47;78.20
13954;BME280;7049;49.444;8.522;2022-12-29T07:20:46;77357.75;;;-3.47;78.11
13954;BME280;7049;49.444;8.522;2022-12-29T07:25:47;77364.03;;;-3.47;78.30
13954;BME280;7049;49.444;8.522;2022-12-29T07:30:49;77351.47;;;-3.47;77.56
13954;BME280;7049;49.444;8.522;2022-12-29T07:35:52;77353.56;;;-3.47;77.25
13954;BME280;7049;49.444;8.522;2022-12-29T07:40:56;77357.75;;;-3.47;76.75
13954;BME280;7049;49.444;8.522;2022-12-29T07:45:58;77349.38;;;-3.47;76.12
13954;BME280;7049;49.444;8.522;2022-12-29T07:51:00;77343.13;;;-3.47;76.03
13954;BME280;7049;49.444;8.522;2022-12-29T07:56:02;77347.28;;;-3.47;75.86
13954;BME280;7049;49.444;8.522;2022-12-29T08:01:04;77341.03;;;-3.47;75.50
13954;BME280;7049;49.444;8.522;2022-12-29T08:06:08;77343.13;;;-3.47;75.38
13954;BME280;7049;49.444;8.522;2022-12-29T08:11:10;77336.84;;;-3.47;74.15
13954;BME280;7049;49.444;8.522;2022-12-29T08:16:11;77322.19;;;-3.47;73.29
13954;BME280;7049;49.444;8.522;2022-12-29T08:21:14;77330.56;;;-3.47;72.82
13954;BME280;7049;49.444;8.522;2022-12-29T08:26:16;77328.47;;;-3.47;72.53
13954;BME280;7049;49.444;8.522;2022-12-29T08:31:17;77315.91;;;-3.47;71.73
13954;BME280;7049;49.444;8.522;2022-12-29T08:36:20;77320.09;;;-3.47;71.73
13954;BME280;7049;49.444;8.522;2022-12-29T08:41:21;77330.56;;;-3.47;72.39
13954;BME280;7049;49.444;8.522;2022-12-29T08:46:22;77324.28;;;-3.47;72.17
13954;BME280;7049;49.444;8.522;2022-12-29T08:51:25;77320.09;;;-3.47;71.87
13954;BME280;7049;49.444;8.522;2022-12-29T08:56:27;77309.63;;;-3.47;71.35
13954;BME280;7049;49.444;8.522;2022-12-29T09:01:29;77313.81;;;-3.47;71.80
13954;BME280;7049;49.444;8.522;2022-12-29T09:06:32;77324.28;;;-3.47;72.83
13954;BME280;7049;49.444;8.522;2022-12-29T09:11:34;77324.28;;;-3.47;73.14
13954;BME280;7049;49.444;8.522;2022-12-29T09:16:36;77332.66;;;-3.47;72.41
13954;BME280;7049;49.444;8.522;2022-12-29T09:21:38;77334.75;;;-3.47;72.72
13954;BME280;7049;49.444;8.522;2022-12-29T09:26:40;77332.66;;;-3.47;73.23
13954;BME280;7049;49.444;8.522;2022-12-29T09:31:41;77341.03;;;-3.47;73.38
13954;BME280;7049;49.444;8.522;2022-12-29T09:36:44;77338.94;;;-3.47;73.85
13954;BME280;7049;49.444;8.522;2022-12-29T09:41:49;77299.19;;;-3.47;73.37
13954;BME280;7049;49.444;8.522;2022-12-29T09:46:54;77303.38;;;-3.47;74.04
13954;BME280;7049;49.444;8.522;2022-12-29T09:52:02;77301.28;;;-3.47;74.00
13954;BME280;7049;49.444;8.522;2022-12-29T09:57:10;77297.09;;;-3.47;74.65
13954;BME280;7049;49.444;8.522;2022-12-29T10:02:27;77290.81;;;-3.47;75.09
13954;BME280;7049;49.444;8.522;2022-12-29T10:07:43;77299.19;;;-3.47;75.38
13954;BME280;7049;49.444;8.522;2022-12-29T10:12:58;77297.09;;;-3.47;75.86
13954;BME280;7049;49.444;8.522;2022-12-29T10:18:12;77295.00;;;-3.47;75.23
13954;BME280;7049;49.444;8.522;2022-12-29T10:23:26;77290.81;;;-3.47;75.71
13954;BME280;7049;49.444;8.522;2022-12-29T10:28:34;77297.09;;;-3.47;75.28
13954;BME280;7049;49.444;8.522;2022-12-29T10:33:39;77290.81;;;-3.47;75.29
13954;BME280;7049;49.444;8.522;2022-12-29T10:38:48;77290.81;;;-3.47;76.07
13954;BME280;7049;49.444;8.522;2022-12-29T10:43:54;77305.47;;;-3.47;75.56
13954;BME280;7049;49.444;8.522;2022-12-29T10:48:57;77295.00;;;-3.47;74.55
13954;BME280;7049;49.444;8.522;2022-12-29T10:54:04;77288.72;;;-3.47;75.25
13954;BME280;7049;49.444;8.522;2022-12-29T10:59:12;77295.00;;;-3.47;75.34
13954;BME280;7049;49.444;8.522;2022-12-29T11:04:28;77263.63;;;-3.47;74.52
13954;BME280;7049;49.444;8.522;2022-12-29T11:09:38;77194.56;;;-3.47;72.39
13954;BME280;7049;49.444;8.522;2022-12-29T11:14:41;77202.94;;;-3.47;70.30
13954;BME280;7049;49.444;8.522;2022-12-29T11:19:42;77175.75;;;-3.47;70.42
13954;BME280;7049;49.444;8.522;2022-12-29T11:24:46;77169.47;;;-3.47;69.44
13954;BME280;7049;49.444;8.522;2022-12-29T11:29:49;77202.94;;;-3.47;70.18
13954;BME280;7049;49.444;8.522;2022-12-29T11:34:51;77211.31;;;-3.47;69.66
13954;BME280;7049;49.444;8.522;2022-12-29T11:39:57;77223.88;;;-3.47;69.68
13954;BME280;7049;49.444;8.522;2022-12-29T11:45:03;77240.59;;;-3.47;70.39
13954;BME280;7049;49.444;8.522;2022-12-29T11:50:07;77244.78;;;-3.47;70.81
13954;BME280;7049;49.444;8.522;2022-12-29T11:55:17;77255.25;;;-3.47;69.81
13954;BME280;7049;49.444;8.522;2022-12-29T12:00:22;77267.78;;;-3.47;69.32
13954;BME280;7049;49.444;8.522;2022-12-29T12:05:33;77271.97;;;-3.47;68.91
13954;BME280;7049;49.444;8.522;2022-12-29T12:10:42;77276.16;;;-3.47;69.42
13954;BME280;7049;49.444;8.522;2022-12-29T12:15:50;77290.81;;;-3.47;68.81
13954;BME280;7049;49.444;8.522;2022-12-29T12:20:55;77299.19;;;-3.47;68.76
13954;BME280;7049;49.444;8.522;2022-12-29T12:26:07;77292.91;;;-3.47;68.20
13954;BME280;7049;49.444;8.522;2022-12-29T12:31:18;77284.53;;;-3.47;69.02
13954;BME280;7049;49.444;8.522;2022-12-29T12:36:35;77299.19;;;-3.47;70.81
13954;BME280;7049;49.444;8.522;2022-12-29T12:41:51;77299.19;;;-3.47;70.96
13954;BME280;7049;49.444;8.522;2022-12-29T12:47:27;77307.53;;;-3.47;71.92
13954;BME280;7049;49.444;8.522;2022-12-29T12:52:39;77305.47;;;-3.47;72.37
13954;BME280;7049;49.444;8.522;2022-12-29T12:57:54;77307.53;;;-3.47;72.85
13954;BME280;7049;49.444;8.522;2022-12-29T13:03:04;77299.19;;;-3.47;70.30
13954;BME280;7049;49.444;8.522;2022-12-29T13:08:26;77299.19;;;-3.47;70.08
13954;BME280;7049;49.444;8.522;2022-12-29T13:13:48;77276.16;;;-3.47;68.02
13954;BME280;7049;49.444;8.522;2022-12-29T13:18:59;77257.34;;;-3.47;67.55
13954;BME280;7049;49.444;8.522;2022-12-29T13:24:10;77251.06;;;-3.47;68.08
13954;BME280;7049;49.444;8.522;2022-12-29T13:29:18;77280.34;;;-3.47;68.87
13954;BME280;7049;49.444;8.522;2022-12-29T13:34:31;77290.81;;;-3.47;69.02
13954;BME280;7049;49.444;8.522;2022-12-29T13:39:39;77320.09;;;-3.47;70.09
13954;BME280;7049;49.444;8.522;2022-12-29T13:44:46;77324.28;;;-3.47;71.47
13954;BME280;7049;49.444;8.522;2022-12-29T13:49:50;77332.66;;;-3.47;72.74
13954;BME280;7049;49.444;8.522;2022-12-29T13:54:58;77353.56;;;-3.47;74.30
13954;BME280;7049;49.444;8.522;2022-12-29T14:00:11;77357.75;;;-3.47;74.10
13954;BME280;7049;49.444;8.522;2022-12-29T14:05:28;77387.06;;;-3.47;75.33
13954;BME280;7049;49.444;8.522;2022-12-29T14:10:32;77405.88;;;-3.47;76.64
13954;BME280;7049;49.444;8.522;2022-12-29T14:15:39;77416.34;;;-3.47;75.43
13954;BME280;7049;49.444;8.522;2022-12-29T14:20:53;77447.72;;;-3.47;76.64
13954;BME280;7049;49.444;8.522;2022-12-29T14:25:58;77449.81;;;-3.47;75.64
13954;BME280;7049;49.444;8.522;2022-12-29T14:31:02;77479.09;;;-3.47;76.23
13954;BME280;7049;49.444;8.522;2022-12-29T14:36:21;77479.09;;;-3.47;79.87
13954;BME280;7049;49.444;8.522;2022-12-29T14:41:27;77495.84;;;-3.47;82.31
13954;BME280;7049;49.444;8.522;2022-12-29T14:46:49;77504.22;;;-3.47;84.25
13954;BME280;7049;49.444;8.522;2022-12-29T14:52:05;77531.41;;;-3.47;85.40
13954;BME280;7049;49.444;8.522;2022-12-29T14:57:13;77548.16;;;-3.47;86.48
13954;BME280;7049;49.444;8.522;2022-12-29T15:02:19;77554.44;;;-3.47;87.15
13954;BME280;7049;49.444;8.522;2022-12-29T15:07:22;77562.81;;;-3.47;87.80
13954;BME280;7049;49.444;8.522;2022-12-29T15:12:31;77566.97;;;-3.47;88.47
13954;BME280;7049;49.444;8.522;2022-12-29T15:17:36;77558.63;;;-3.47;89.28
13954;BME280;7049;49.444;8.522;2022-12-29T15:22:41;77564.91;;;-3.47;90.00
13954;BME280;7049;49.444;8.522;2022-12-29T15:27:48;77583.72;;;-3.47;90.71
13954;BME280;7049;49.444;8.522;2022-12-29T15:32:52;77606.75;;;-3.47;91.36
13954;BME280;7049;49.444;8.522;2022-12-29T15:37:54;77619.28;;;-3.47;91.55
13954;BME280;7049;49.444;8.522;2022-12-29T15:43:07;77621.38;;;-3.47;91.64
13954;BME280;7049;49.444;8.522;2022-12-29T15:48:17;77640.22;;;-3.47;91.82
13954;BME280;7049;49.444;8.522;2022-12-29T15:53:21;77652.78;;;-3.47;91.84
13954;BME280;7049;49.444;8.522;2022-12-29T15:58:29;77671.59;;;-3.47;91.76
13954;BME280;7049;49.444;8.522;2022-12-29T16:03:33;77684.16;;;-3.47;92.41
13954;BME280;7049;49.444;8.522;2022-12-29T16:08:38;77679.97;;;-3.47;92.34
13954;BME280;7049;49.444;8.522;2022-12-29T16:13:40;77688.34;;;-3.47;92.28
13954;BME280;7049;49.444;8.522;2022-12-29T16:18:43;77694.63;;;-3.47;92.63
13954;BME280;7049;49.444;8.522;2022-12-29T16:23:50;77684.16;;;-3.47;92.62
13954;BME280;7049;49.444;8.522;2022-12-29T16:28:56;77690.44;;;-3.47;92.69
13954;BME280;7049;49.444;8.522;2022-12-29T16:34:10;77694.63;;;-3.47;93.11
13954;BME280;7049;49.444;8.522;2022-12-29T16:39:20;77705.09;;;-3.47;93.30
13954;BME280;7049;49.444;8.522;2022-12-29T16:44:24;77705.09;;;-3.47;93.34
13954;BME280;7049;49.444;8.522;2022-12-29T16:49:29;77698.81;;;-3.47;93.16
13954;BME280;7049;49.444;8.522;2022-12-29T16:54:33;77698.81;;;-3.47;93.07
13954;BME280;7049;49.444;8.522;2022-12-29T16:59:38;77700.91;;;-3.47;93.44
13954;BME280;7049;49.444;8.522;2022-12-29T17:04:43;77698.81;;;-3.47;93.22
13954;BME280;7049;49.444;8.522;2022-12-29T17:09:48;77709.25;;;-3.47;94.50
13954;BME280;7049;49.444;8.522;2022-12-29T17:14:53;77719.72;;;-3.47;95.75
13954;BME280;7049;49.444;8.522;2022-12-29T17:20:00;77717.63;;;-3.47;96.91
13954;BME280;7049;49.444;8.522;2022-12-29T17:25:03;77715.53;;;-3.47;97.62
13954;BME280;7049;49.444;8.522;2022-12-29T17:30:10;77711.34;;;-3.47;98.32
13954;BME280;7049;49.444;8.522;2022-12-29T17:35:15;77711.34;;;-3.47;98.49
13954;BME280;7049;49.444;8.522;2022-12-29T17:40:18;77700.91;;;-3.47;98.79
13954;BME280;7049;49.444;8.522;2022-12-29T17:45:22;77723.91;;;-3.47;99.20
13954;BME280;7049;49.444;8.522;2022-12-29T17:50:28;77732.28;;;-3.47;99.28
13954;BME280;7049;49.444;8.522;2022-12-29T17:55:30;77728.09;;;-3.47;99.60
13954;BME280;7049;49.444;8.522;2022-12-29T18:00:32;77723.91;;;-3.47;99.79
13954;BME280;7049;49.444;8.522;2022-12-29T18:05:35;77738.56;;;-3.47;100.00
13954;BME280;7049;49.444;8.522;2022-12-29T18:10:37;77728.09;;;-3.47;100.00
13954;BME280;7049;49.444;8.522;2022-12-29T18:15:39;77726.00;;;-3.47;100.00
13954;BME280;7049;49.444;8.522;2022-12-29T18:20:43;77726.00;;;-3.47;98.87
13954;BME280;7049;49.444;8.522;2022-12-29T18:25:48;77742.75;;;-3.47;98.75
13954;BME280;7049;49.444;8.522;2022-12-29T18:30:51;77749.03;;;-3.47;97.88
13954;BME280;7049;49.444;8.522;2022-12-29T18:35:56;77755.28;;;-3.47;97.63
13954;BME280;7049;49.444;8.522;2022-12-29T18:40:58;77776.22;;;-3.47;97.25
13954;BME280;7049;49.444;8.522;2022-12-29T18:46:00;77772.03;;;-3.47;96.93
13954;BME280;7049;49.444;8.522;2022-12-29T18:51:03;77782.50;;;-3.47;96.29
13954;BME280;7049;49.444;8.522;2022-12-29T18:56:05;77788.78;;;-3.47;96.82
13954;BME280;7049;49.444;8.522;2022-12-29T19:01:18;77803.41;;;-3.47;97.05
13954;BME280;7049;49.444;8.522;2022-12-29T19:06:21;77809.69;;;-3.47;97.51
13954;BME280;7049;49.444;8.522;2022-12-29T19:11:22;77805.50;;;-3.47;98.05
13954;BME280;7049;49.444;8.522;2022-12-29T19:16:25;77813.88;;;-3.47;98.38
13954;BME280;7049;49.444;8.522;2022-12-29T19:21:28;77809.69;;;-3.47;99.38
13954;BME280;7049;49.444;8.522;2022-12-29T19:26:32;77809.69;;;-3.47;100.00
13954;BME280;7049;49.444;8.522;2022-12-29T19:31:36;77805.50;;;-3.47;100.00
13954;BME280;7049;49.444;8.522;2022-12-29T19:36:39;77815.97;;;-3.47;100.00
13954;BME280;7049;49.444;8.522;2022-12-29T19:41:41;77824.34;;;-3.47;100.00
13954;BME280;7049;49.444;8.522;2022-12-29T19:46:42;77834.81;;;-3.47;100.00
13954;BME280;7049;49.444;8.522;2022-12-29T19:51:45;77832.72;;;-3.47;100.00
13954;BME280;7049;49.444;8.522;2022-12-29T19:56:47;77851.56;;;-3.47;100.00
13954;BME280;7049;49.444;8.522;2022-12-29T20:01:48;77847.38;;;-3.47;100.00
13954;BME280;7049;49.444;8.522;2022-12-29T20:06:51;77843.19;;;-3.47;100.00
13954;BME280;7049;49.444;8.522;2022-12-29T20:11:52;77847.38;;;-3.47;100.00
13954;BME280;7049;49.444;8.522;2022-12-29T20:16:54;77855.75;;;-3.47;100.00
13954;BME280;7049;49.444;8.522;2022-12-29T20:21:57;77859.91;;;-3.47;99.98
13954;BME280;7049;49.444;8.522;2022-12-29T20:26:58;77866.19;;;-3.47;100.00
13954;BME280;7049;49.444;8.522;2022-12-29T20:32:02;77876.66;;;-3.47;99.70
13954;BME280;7049;49.444;8.522;2022-12-29T20:37:05;77893.41;;;-3.47;100.00
13954;BME280;7049;49.444;8.522;2022-12-29T20:42:06;77893.41;;;-3.47;100.00
13954;BME280;7049;49.444;8.522;2022-12-29T20:47:08;77891.31;;;-3.47;100.00
13954;BME280;7049;49.444;8.522;2022-12-29T20:52:11;77897.59;;;-3.47;100.00
13954;BME280;7049;49.444;8.522;2022-12-29T20:57:12;77899.69;;;-3.47;100.00
13954;BME280;7049;49.444;8.522;2022-12-29T21:02:18;77891.31;;;-3.47;100.00
13954;BME280;7049;49.444;8.522;2022-12-29T21:07:21;77891.31;;;-3.47;99.98
13954;BME280;7049;49.444;8.522;2022-12-29T21:12:22;77901.78;;;-3.47;100.00
13954;BME280;7049;49.444;8.522;2022-12-29T21:17:24;77910.13;;;-3.47;100.00
13954;BME280;7049;49.444;8.522;2022-12-29T21:22:26;77912.22;;;-3.47;100.00
13954;BME280;7049;49.444;8.522;2022-12-29T21:27:28;77914.31;;;-3.47;100.00
13954;BME280;7049;49.444;8.522;2022-12-29T21:32:29;77924.78;;;-3.47;100.00
13954;BME280;7049;49.444;8.522;2022-12-29T21:37:32;77931.06;;;-3.47;100.00
13954;BME280;7049;49.444;8.522;2022-12-29T21:42:33;77939.44;;;-3.47;100.00
13954;BME280;7049;49.444;8.522;2022-12-29T21:47:35;77926.88;;;-3.47;100.00
13954;BME280;7049;49.444;8.522;2022-12-29T21:52:54;77931.06;;;-3.47;100.00
13954;BME280;7049;49.444;8.522;2022-12-29T21:57:56;77958.28;;;-3.47;100.00
13954;BME280;7049;49.444;8.522;2022-12-29T22:03:15;77970.81;;;-3.47;100.00
13954;BME280;7049;49.444;8.522;2022-12-29T22:08:36;77977.09;;;-3.47;100.00
13954;BME280;7049;49.444;8.522;2022-12-29T22:13:55;77989.66;;;-3.47;100.00
13954;BME280;7049;49.444;8.522;2022-12-29T22:18:57;77998.03;;;-3.47;100.00
13954;BME280;7049;49.444;8.522;2022-12-29T22:24:00;78002.22;;;-3.47;100.00
13954;BME280;7049;49.444;8.522;2022-12-29T22:29:01;78010.59;;;-3.47;100.00
13954;BME280;7049;49.444;8.522;2022-12-29T22:34:03;78023.13;;;-3.47;100.00
13954;BME280;7049;49.444;8.522;2022-12-29T22:39:06;78016.88;;;-3.47;100.00
13954;BME280;7049;49.444;8.522;2022-12-29T22:44:09;78021.03;;;-3.47;100.00
13954;BME280;7049;49.444;8.522;2022-12-29T22:49:11;78035.69;;;-3.47;100.00
13954;BME280;7049;49.444;8.522;2022-12-29T22:54:13;78039.88;;;-3.47;100.00
13954;BME280;7049;49.444;8.522;2022-12-29T22:59:15;78039.88;;;-3.47;100.00
13954;BME280;7049;49.444;8.522;2022-12-29T23:04:17;78054.53;;;-3.47;100.00
13954;BME280;7049;49.444;8.522;2022-12-29T23:09:20;78065.00;;;-3.47;100.00
13954;BME280;7049;49.444;8.522;2022-12-29T23:14:22;78060.81;;;-3.47;100.00
13954;BME280;7049;49.444;8.522;2022-12-29T23:19:25;78060.81;;;-3.47;100.00
13954;BME280;7049;49.444;8.522;2022-12-29T23:24:28;78065.00;;;-3.47;100.00
13954;BME280;7049;49.444;8.522;2022-12-29T23:29:29;78075.47;;;-3.47;100.00
13954;BME280;7049;49.444;8.522;2022-12-29T23:34:30;78090.09;;;-3.47;100.00
13954;BME280;7049;49.444;8.522;2022-12-29T23:39:33;78088.00;;;-3.47;100.00
13954;BME280;7049;49.444;8.522;2022-12-29T23:44:34;78094.28;;;-3.47;100.00
13954;BME280;7049;49.444;8.522;2022-12-29T23:49:36;78100.56;;;-3.47;100.00
13954;BME280;7049;49.444;8.522;2022-12-29T23:54:39;78090.09;;;-3.47;100.00
13954;BME280;7049;49.444;8.522;2022-12-29T23:59:40;78096.38;;;-3.47;100.00
